Terminal Aerodrome Forecast
Issued by NWS Charleston, WV

Current Version | Previous Version | Graphics & Text | Print | Product List | Glossary On
Versions: 1 2 3 4 5 6 7 8 9 10 11 12 13 14 15 16 17 18 19 20 21 22 23 24 25 26 27 28
000
FTUS41 KRLX 212328
TAFHTS
TAF
KHTS 212328Z 2200/2224 VRB03KT P6SM OVC100
     FM221600 11005KT P6SM -RA SCT025 OVC040
     FM222200 10004KT P6SM OVC250=

USA.gov is the U.S. government's official web portal to all federal, state and local government web resources and services.